Time;durP1;ratioP1;P1;durP2;ratioP2;P2;SDS_P1;SDS_P2;PMS_P1;PMS_P2;Temp;Humidity;BMP_temperature;BMP_pressure;BME280_temperature;BME280_humidity;BME280_pressure;Samples;Min_cycle;Max_cycle;Signal;HPM_P1;HPM_P2
2021/05/17 00:01:53;;;;;;;28.67;19.63;;;15.10;70.50;;;;;;6150342;23;20151;-57
2021/05/17 00:04:31;;;;;;;25.55;17.67;;;15.30;70.80;;;;;;6124108;23;20052;-56
2021/05/17 00:06:59;;;;;;;19.02;13.55;;;15.60;70.00;;;;;;6150372;23;20025;-57
2021/05/17 00:09:25;;;;;;;25.27;17.73;;;15.80;68.60;;;;;;6152387;23;20414;-57
2021/05/17 00:11:52;;;;;;;18.15;11.73;;;16.00;68.30;;;;;;6152894;23;20017;-57
2021/05/17 00:14:19;;;;;;;12.85;8.30;;;16.20;67.10;;;;;;6153301;23;20320;-57
2021/05/17 00:16:45;;;;;;;13.73;8.10;;;16.20;65.60;;;;;;6151840;23;20348;-57
2021/05/17 00:19:12;;;;;;;7.90;2.63;;;16.00;65.80;;;;;;6152157;23;20013;-57
2021/05/17 00:21:38;;;;;;;9.85;6.38;;;15.50;65.10;;;;;;6152811;23;20048;-58
2021/05/17 00:24:05;;;;;;;22.17;16.20;;;15.00;66.70;;;;;;6152147;23;20047;-57
2021/05/17 00:26:31;;;;;;;22.15;15.32;;;14.80;69.40;;;;;;6151756;23;20018;-58
2021/05/17 00:28:57;;;;;;;22.30;15.57;;;15.00;70.20;;;;;;6151585;23;20025;-57
2021/05/17 00:31:23;;;;;;;19.90;13.80;;;15.30;69.90;;;;;;6126549;23;20025;-55
2021/05/17 00:33:49;;;;;;;21.25;14.13;;;15.50;69.10;;;;;;6152507;23;20014;-55
2021/05/17 00:36:16;;;;;;;10.90;6.22;;;15.60;69.10;;;;;;6151763;23;20396;-55
2021/05/17 00:38:43;;;;;;;11.82;7.68;;;15.50;67.50;;;;;;6126316;23;20047;-55
2021/05/17 00:41:10;;;;;;;17.75;12.00;;;15.20;67.50;;;;;;6126209;23;20036;-55
2021/05/17 00:43:37;;;;;;;11.48;7.50;;;14.90;68.40;;;;;;6153965;23;20282;-55
2021/05/17 00:46:09;;;;;;;16.80;11.82;;;14.70;69.40;;;;;;6153890;23;20022;-55
2021/05/17 00:48:37;;;;;;;4.63;3.30;;;14.70;70.00;;;;;;6152103;23;20316;-56
2021/05/17 00:51:07;;;;;;;21.33;13.02;;;14.50;68.90;;;;;;6152157;23;20037;-55
2021/05/17 00:53:34;;;;;;;15.38;11.23;;;14.40;70.80;;;;;;6152094;23;20013;-55
2021/05/17 00:56:00;;;;;;;18.00;12.60;;;14.40;71.70;;;;;;6153969;23;20020;-55
2021/05/17 00:58:27;;;;;;;16.63;11.70;;;14.70;72.10;;;;;;6153336;23;20112;-55
2021/05/17 01:00:52;;;;;;;16.20;11.57;;;15.00;71.60;;;;;;6152413;23;20108;-56
2021/05/17 01:03:19;;;;;;;5.82;3.55;;;15.20;70.60;;;;;;6153054;23;20018;-55
2021/05/17 01:05:45;;;;;;;7.47;4.28;;;15.20;68.50;;;;;;6152935;23;20231;-56
2021/05/17 01:08:24;;;;;;;15.60;11.15;;;15.00;68.00;;;;;;6152240;23;20068;-55
2021/05/17 01:10:54;;;;;;;14.88;11.48;;;14.90;69.60;;;;;;6151628;23;20348;-55
2021/05/17 01:13:20;;;;;;;16.15;11.18;;;15.20;70.30;;;;;;6151780;23;20009;-55
2021/05/17 01:15:50;;;;;;;15.38;10.30;;;15.50;69.70;;;;;;6152342;23;20506;-56
2021/05/17 01:18:17;;;;;;;13.63;9.70;;;15.80;69.10;;;;;;6152449;23;20017;-55
2021/05/17 01:20:47;;;;;;;16.88;10.77;;;15.90;68.20;;;;;;6152573;23;20013;-56
2021/05/17 01:25:54;;;;;;;14.73;9.85;;;15.80;68.80;;;;;;6152276;23;20009;-56
2021/05/17 01:28:29;;;;;;;16.63;11.07;;;16.00;68.40;;;;;;6152416;23;20028;-55
2021/05/17 01:31:04;;;;;;;14.10;10.52;;;16.30;67.90;;;;;;6151337;23;20020;-56
2021/05/17 01:33:35;;;;;;;11.43;8.23;;;16.50;67.00;;;;;;6151972;23;20413;-56
2021/05/17 01:36:01;;;;;;;11.50;7.93;;;16.40;66.00;;;;;;6152170;23;20077;-55
2021/05/17 01:38:28;;;;;;;9.95;6.55;;;16.20;66.60;;;;;;6153193;23;20323;-55
2021/05/17 01:40:55;;;;;;;14.93;8.88;;;16.10;66.70;;;;;;6152716;23;20037;-55
2021/05/17 01:43:23;;;;;;;16.75;9.18;;;15.80;67.40;;;;;;6152897;23;20045;-56
2021/05/17 01:45:49;;;;;;;12.85;8.77;;;15.90;68.80;;;;;;6152961;23;20009;-55
2021/05/17 01:48:22;;;;;;;15.68;9.40;;;16.10;68.60;;;;;;6151387;23;20108;-56
2021/05/17 01:50:48;;;;;;;;;;;16.30;67.90;;;;;;6153158;23;20027;-56
2021/05/17 01:53:16;;;;;;;13.35;9.20;;;16.30;66.50;;;;;;6150940;23;19916;-56
2021/05/17 01:55:43;;;;;;;10.43;6.18;;;16.40;67.30;;;;;;6151022;23;20014;-55
2021/05/17 01:58:13;;;;;;;15.63;9.07;;;16.50;66.10;;;;;;6153808;23;20014;-55
2021/05/17 02:00:40;;;;;;;13.40;8.80;;;16.40;66.10;;;;;;6151490;23;20104;-56
2021/05/17 02:03:08;;;;;;;13.98;9.32;;;16.30;66.50;;;;;;6151122;23;20009;-56
2021/05/17 02:05:35;;;;;;;7.03;4.40;;;16.30;66.90;;;;;;6151219;23;20149;-55
2021/05/17 02:08:03;;;;;;;7.45;4.40;;;15.90;66.00;;;;;;6153715;23;20013;-55
2021/05/17 02:10:30;;;;;;;12.63;7.32;;;15.30;66.10;;;;;;6153327;23;20018;-55
2021/05/17 02:12:58;;;;;;;4.47;3.50;;;14.90;68.20;;;;;;6124925;23;20017;-55
2021/05/17 02:15:25;;;;;;;9.65;5.13;;;14.70;68.50;;;;;;6152618;23;20033;-55
2021/05/17 02:18:08;;;;;;;6.10;3.58;;;14.40;69.00;;;;;;6151949;23;20020;-55
2021/05/17 02:20:36;;;;;;;7.80;4.25;;;14.50;68.90;;;;;;6150905;23;20040;-55
2021/05/17 02:23:03;;;;;;;6.85;4.28;;;14.10;69.30;;;;;;6151347;23;20017;-55
2021/05/17 02:25:29;;;;;;;7.60;5.05;;;13.60;70.30;;;;;;6151716;23;20032;-56
2021/05/17 02:27:57;;;;;;;6.90;3.97;;;13.20;72.00;;;;;;6151978;23;20021;-55
2021/05/17 02:30:24;;;;;;;7.68;3.13;;;13.20;73.60;;;;;;6152657;23;20024;-55
2021/05/17 02:32:54;;;;;;;7.65;3.15;;;13.20;73.20;;;;;;6127246;23;20013;-55
2021/05/17 02:35:21;;;;;;;7.65;2.90;;;12.80;73.10;;;;;;6151099;23;20332;-55
2021/05/17 02:37:49;;;;;;;5.78;3.28;;;12.50;74.40;;;;;;6152438;23;20043;-55
2021/05/17 02:40:16;;;;;;;14.15;4.40;;;12.30;75.50;;;;;;6151349;23;20092;-55
2021/05/17 02:42:45;;;;;;;9.43;4.95;;;12.10;76.90;;;;;;6153208;23;20096;-55
2021/05/17 02:45:13;;;;;;;5.18;3.50;;;12.10;79.70;;;;;;6151750;23;20020;-56
2021/05/17 02:47:39;;;;;;;3.83;2.50;;;12.30;79.80;;;;;;6151037;23;20013;-55
2021/05/17 02:50:11;;;;;;;7.25;3.90;;;12.40;78.60;;;;;;6152091;23;20021;-55
2021/05/17 02:52:38;;;;;;;7.57;3.20;;;12.20;78.80;;;;;;6151563;23;20042;-55
2021/05/17 02:55:10;;;;;;;2.67;1.92;;;12.20;78.70;;;;;;6150627;23;20404;-55
2021/05/17 02:57:49;;;;;;;7.63;4.97;;;12.10;78.40;;;;;;6151146;23;20014;-55
2021/05/17 03:00:20;;;;;;;7.47;4.35;;;12.20;79.60;;;;;;6151506;23;20017;-55
2021/05/17 03:03:05;;;;;;;6.38;3.97;;;12.40;80.30;;;;;;6124447;23;20010;-55
2021/05/17 03:05:36;;;;;;;8.20;5.72;;;12.60;78.00;;;;;;6151181;23;20041;-55
2021/05/17 03:08:11;;;;;;;8.70;5.80;;;13.00;79.10;;;;;;6150820;23;20072;-55
2021/05/17 03:10:42;;;;;;;4.82;1.50;;;13.30;78.40;;;;;;6150415;23;20013;-55
2021/05/17 03:13:17;;;;;;;5.10;3.28;;;13.50;76.60;;;;;;6153214;23;20053;-55
2021/05/17 03:15:45;;;;;;;2.58;1.65;;;13.60;75.50;;;;;;6151939;23;20013;-56
2021/05/17 03:18:12;;;;;;;2.63;1.90;;;13.40;74.80;;;;;;6124809;23;20049;-56
2021/05/17 03:20:40;;;;;;;6.20;2.17;;;13.20;75.30;;;;;;6151238;23;20140;-56
2021/05/17 03:23:08;;;;;;;3.33;2.10;;;12.90;75.80;;;;;;6153097;23;20025;-56
2021/05/17 03:25:35;;;;;;;5.35;3.38;;;12.70;76.30;;;;;;6150856;23;20440;-56
2021/05/17 03:28:01;;;;;;;7.03;4.53;;;12.70;78.40;;;;;;6123757;23;20021;-56
2021/05/17 03:30:27;;;;;;;6.22;4.25;;;12.90;78.20;;;;;;6150272;23;20024;-56
2021/05/17 03:32:53;;;;;;;5.80;1.58;;;13.10;78.60;;;;;;6150583;23;20458;-56
2021/05/17 03:35:19;;;;;;;5.15;3.25;;;13.30;77.20;;;;;;6124853;23;20013;-56
2021/05/17 03:37:46;;;;;;;4.25;2.08;;;13.10;76.40;;;;;;6150392;23;20383;-56
2021/05/17 03:40:14;;;;;;;4.30;2.92;;;12.80;76.50;;;;;;6100182;23;20010;-56
2021/05/17 03:42:40;;;;;;;4.47;2.05;;;12.50;77.60;;;;;;6151330;23;20028;-56
2021/05/17 03:45:09;;;;;;;3.65;2.17;;;12.30;77.70;;;;;;6152079;23;20018;-56
2021/05/17 03:47:34;;;;;;;4.38;2.38;;;12.10;78.20;;;;;;6150391;23;20037;-56
2021/05/17 03:50:00;;;;;;;4.38;2.20;;;11.90;78.50;;;;;;6151356;23;20052;-56
2021/05/17 03:52:26;;;;;;;5.40;2.47;;;11.70;78.90;;;;;;6151087;23;20024;-56
2021/05/17 03:54:52;;;;;;;5.28;2.50;;;11.50;79.80;;;;;;6152824;23;20335;-55
2021/05/17 03:57:18;;;;;;;5.70;2.60;;;11.40;80.30;;;;;;6151505;23;20017;-56
2021/05/17 03:59:45;;;;;;;4.50;2.95;;;11.30;80.60;;;;;;6101798;23;20110;-56
2021/05/17 04:02:20;;;;;;;5.97;3.75;;;11.20;81.10;;;;;;6152361;23;20025;-56
2021/05/17 04:13:17;;;;;;;8.35;4.40;;;11.40;82.10;;;;;;6150072;23;20455;-63
2021/05/17 04:15:16;;;;;;;4.63;3.67;;;11.70;83.20;;;;;;6150641;23;20075;-63
2021/05/17 04:17:43;;;;;;;5.60;3.50;;;12.30;82.60;;;;;;6150129;23;20021;-63
2021/05/17 04:20:09;;;;;;;7.60;3.90;;;12.70;81.00;;;;;;6151892;23;20013;-63
2021/05/17 04:22:35;;;;;;;8.57;4.70;;;12.80;80.40;;;;;;6151551;23;20093;-65
2021/05/17 04:25:00;;;;;;;9.57;3.95;;;12.70;80.20;;;;;;6152757;23;20037;-65
2021/05/17 04:27:26;;;;;;;4.72;3.65;;;12.70;79.70;;;;;;6151843;23;20065;-64
2021/05/17 04:29:52;;;;;;;6.90;3.50;;;12.80;80.00;;;;;;6150282;23;20391;-64
2021/05/17 04:32:18;;;;;;;5.57;4.35;;;12.90;78.90;;;;;;6150633;23;20040;-65
2021/05/17 04:34:43;;;;;;;6.80;3.97;;;12.90;78.90;;;;;;6151655;23;20017;-64
2021/05/17 04:37:09;;;;;;;8.00;4.68;;;13.00;79.30;;;;;;6151980;23;20009;-64
2021/05/17 04:39:35;;;;;;;8.95;4.68;;;13.10;79.00;;;;;;6151478;23;20018;-64
2021/05/17 04:42:01;;;;;;;5.43;4.30;;;13.10;78.40;;;;;;6149888;23;20021;-64
2021/05/17 04:44:26;;;;;;;7.32;4.82;;;12.90;78.70;;;;;;6149449;23;20017;-64
2021/05/17 04:46:53;;;;;;;8.80;4.57;;;13.00;79.20;;;;;;6150274;23;20017;-63
2021/05/17 04:49:19;;;;;;;5.07;3.78;;;12.90;78.80;;;;;;6150970;23;20021;-64
2021/05/17 04:51:44;;;;;;;7.88;4.10;;;12.90;79.70;;;;;;6150670;23;20356;-64
2021/05/17 04:54:10;;;;;;;8.75;4.68;;;13.10;79.90;;;;;;6151244;23;20013;-64
2021/05/17 04:56:36;;;;;;;8.73;4.80;;;13.40;79.00;;;;;;6151945;23;20017;-64
2021/05/17 04:59:02;;;;;;;9.52;5.82;;;13.80;78.50;;;;;;6153091;23;20157;-64
2021/05/17 05:01:28;;;;;;;8.10;5.68;;;13.70;76.80;;;;;;6153478;23;20052;-64
2021/05/17 05:03:54;;;;;;;7.53;5.10;;;13.40;76.90;;;;;;6153501;23;20009;-63
2021/05/17 05:06:19;;;;;;;7.85;5.60;;;13.10;77.90;;;;;;6152144;23;20009;-64
2021/05/17 05:08:45;;;;;;;11.10;6.47;;;12.90;78.60;;;;;;6153533;23;20026;-64
2021/05/17 05:11:11;;;;;;;6.28;4.55;;;12.70;78.90;;;;;;6151886;23;20053;-64
2021/05/17 05:13:37;;;;;;;5.80;4.82;;;12.30;79.80;;;;;;6151307;23;20343;-63
2021/05/17 05:16:03;;;;;;;7.80;6.15;;;12.20;81.10;;;;;;6151237;23;20017;-63
2021/05/17 05:18:28;;;;;;;8.57;6.97;;;12.20;81.40;;;;;;6154283;23;20477;-63
2021/05/17 05:20:54;;;;;;;8.32;6.63;;;12.20;81.00;;;;;;6125049;23;20013;-64
2021/05/17 05:23:21;;;;;;;8.48;7.07;;;12.10;81.00;;;;;;6151499;23;20020;-64
2021/05/17 05:28:16;;;;;;;7.53;6.03;;;11.90;81.40;;;;;;6152257;23;20021;-63
2021/05/17 05:33:17;;;;;;;10.70;6.25;;;11.70;82.10;;;;;;6151484;23;20024;-63
2021/05/17 05:35:45;;;;;;;10.10;7.10;;;11.70;82.70;;;;;;6153422;23;20041;-62
2021/05/17 05:38:11;;;;;;;9.45;4.45;;;11.80;82.50;;;;;;6152869;23;20117;-63
2021/05/17 05:40:37;;;;;;;10.60;6.13;;;11.70;82.70;;;;;;6151917;23;20009;-61
2021/05/17 05:43:03;;;;;;;8.68;6.35;;;11.70;83.50;;;;;;6151513;23;20487;-63
2021/05/17 05:45:32;;;;;;;9.40;7.20;;;11.90;83.80;;;;;;6152486;23;20013;-64
2021/05/17 05:47:58;;;;;;;9.18;6.65;;;12.00;83.20;;;;;;6151140;23;20025;-63
2021/05/17 05:50:24;;;;;;;11.25;7.35;;;11.90;82.80;;;;;;6125027;23;20021;-63
2021/05/17 05:52:50;;;;;;;5.82;4.18;;;11.80;82.90;;;;;;6151648;23;20142;-63
2021/05/17 05:55:17;;;;;;;6.28;3.70;;;11.80;83.30;;;;;;6151865;23;20435;-63
2021/05/17 05:57:44;;;;;;;9.15;6.90;;;12.00;83.90;;;;;;6125545;23;20025;-63
2021/05/17 06:00:14;;;;;;;7.28;5.35;;;12.20;83.20;;;;;;6151372;23;20059;-62
2021/05/17 06:02:40;;;;;;;9.77;7.70;;;12.10;83.10;;;;;;6150964;23;20013;-62
2021/05/17 06:05:07;;;;;;;7.97;5.38;;;12.00;83.10;;;;;;6152647;23;20118;-63
2021/05/17 06:07:33;;;;;;;7.20;4.40;;;12.00;83.70;;;;;;6151984;23;20017;-63
2021/05/17 06:09:59;;;;;;;8.52;7.30;;;11.90;84.10;;;;;;6151487;23;20022;-63
2021/05/17 06:12:25;;;;;;;10.43;7.85;;;12.10;84.20;;;;;;6125717;23;20358;-63
2021/05/17 06:15:02;;;;;;;10.05;7.63;;;12.30;83.50;;;;;;6152675;23;20045;-63
2021/05/17 06:17:28;;;;;;;6.72;5.38;;;12.50;82.80;;;;;;6127802;23;20064;-63
2021/05/17 06:19:54;;;;;;;9.45;5.65;;;12.60;82.80;;;;;;6151057;23;20048;-56
2021/05/17 06:22:21;;;;;;;8.38;6.88;;;12.70;82.80;;;;;;6151122;23;20020;-57
2021/05/17 06:24:48;;;;;;;13.32;6.68;;;12.80;82.50;;;;;;6152246;23;20068;-58
2021/05/17 06:27:15;;;;;;;14.02;7.63;;;12.70;81.90;;;;;;6100356;23;20024;-57
2021/05/17 06:29:43;;;;;;;9.85;8.20;;;12.60;82.00;;;;;;6151644;23;20017;-57
2021/05/17 06:32:10;;;;;;;9.98;7.57;;;12.40;81.80;;;;;;6124536;23;20134;-57
2021/05/17 06:34:39;;;;;;;11.48;7.75;;;12.40;81.90;;;;;;6150662;23;20020;-56
2021/05/17 06:37:05;;;;;;;11.07;6.68;;;12.60;82.30;;;;;;6126671;23;20080;-56
2021/05/17 06:39:31;;;;;;;14.63;8.55;;;12.50;81.90;;;;;;6152892;23;20009;-55
2021/05/17 06:41:57;;;;;;;13.20;8.55;;;12.60;82.00;;;;;;6153194;23;20022;-55
2021/05/17 06:44:23;;;;;;;8.10;4.85;;;12.50;81.60;;;;;;6151584;23;20379;-55
2021/05/17 06:46:49;;;;;;;14.48;7.97;;;12.50;82.70;;;;;;6151842;23;20068;-55
2021/05/17 06:49:15;;;;;;;12.13;9.07;;;12.70;82.30;;;;;;6152093;23;20427;-55
2021/05/17 06:51:41;;;;;;;11.60;8.23;;;12.60;81.70;;;;;;6151823;23;20540;-55
2021/05/17 06:54:09;;;;;;;11.38;4.38;;;12.40;82.10;;;;;;6150494;23;20092;-55
2021/05/17 06:56:52;;;;;;;12.05;7.70;;;12.40;83.50;;;;;;6150341;23;20053;-55
2021/05/17 06:59:19;;;;;;;14.60;7.20;;;12.70;83.40;;;;;;6151081;23;20387;-54
2021/05/17 07:01:46;;;;;;;10.18;7.78;;;12.80;82.50;;;;;;6145682;23;20080;-55
2021/05/17 07:04:15;;;;;;;8.88;4.18;;;12.90;82.20;;;;;;6124468;23;20013;-56
2021/05/17 07:06:48;;;;;;;11.70;7.55;;;12.90;82.70;;;;;;6151853;23;20444;-57
2021/05/17 07:12:05;;;;;;;7.82;4.13;;;13.30;82.70;;;;;;6150250;23;20037;-54
2021/05/17 07:14:31;;;;;;;6.43;3.53;;;13.70;82.30;;;;;;6152407;23;20013;-56
2021/05/17 07:16:56;;;;;;;12.10;6.57;;;14.00;81.70;;;;;;6148976;23;20032;-57
2021/05/17 07:19:22;;;;;;;10.13;4.68;;;14.30;80.10;;;;;;6150401;23;20017;-55
2021/05/17 07:24:33;;;;;;;11.73;5.65;;;14.60;78.20;;;;;;6151266;23;20025;-55
2021/05/17 07:26:58;;;;;;;7.45;3.50;;;14.50;77.80;;;;;;6151387;23;20017;-58
2021/05/17 07:29:24;;;;;;;8.05;4.30;;;14.60;78.60;;;;;;6150592;23;20065;-54
2021/05/17 07:31:50;;;;;;;8.63;3.60;;;14.90;78.50;;;;;;6149752;23;20023;-57
2021/05/17 07:34:18;;;;;;;6.88;3.60;;;15.10;77.60;;;;;;6149444;23;20013;-55
2021/05/17 07:36:46;;;;;;;6.68;3.30;;;15.40;77.30;;;;;;6150380;23;20092;-54
2021/05/17 07:39:12;;;;;;;6.38;3.45;;;15.60;76.30;;;;;;6150148;23;20025;-57
2021/05/17 07:41:38;;;;;;;6.93;4.82;;;15.90;76.30;;;;;;6150957;23;20014;-56
2021/05/17 07:44:05;;;;;;;5.00;3.92;;;16.20;75.00;;;;;;6122845;23;20024;-57
2021/05/17 07:46:30;;;;;;;7.00;3.78;;;16.40;74.40;;;;;;6150838;23;20017;-57
2021/05/17 07:49:34;;;;;;;5.47;4.40;;;16.50;74.00;;;;;;6150875;23;20018;-57
2021/05/17 07:51:49;;;;;;;5.38;4.53;;;16.60;73.30;;;;;;6124769;23;20036;-57
2021/05/17 07:54:18;;;;;;;5.40;3.83;;;16.50;71.60;;;;;;6149321;23;20096;-57
2021/05/17 07:56:45;;;;;;;5.85;4.43;;;16.10;71.30;;;;;;6149248;23;20067;-58
2021/05/17 07:59:10;;;;;;;4.35;2.90;;;15.80;71.30;;;;;;6149096;23;20024;-57
2021/05/17 08:01:37;;;;;;;7.55;2.92;;;15.30;73.40;;;;;;6150619;23;20017;-58
2021/05/17 08:04:03;;;;;;;8.63;3.33;;;15.30;75.50;;;;;;6150340;23;20021;-58
2021/05/17 08:06:29;;;;;;;7.68;5.18;;;15.60;75.70;;;;;;6150984;23;20013;-58
2021/05/17 08:08:55;;;;;;;6.03;2.92;;;15.70;74.80;;;;;;6151962;23;20073;-57
2021/05/17 08:11:21;;;;;;;5.82;2.92;;;15.80;75.00;;;;;;6150502;23;20124;-57
2021/05/17 08:13:47;;;;;;;5.95;4.70;;;16.00;74.80;;;;;;6149494;23;20013;-57
2021/05/17 08:16:15;;;;;;;5.15;2.67;;;16.20;72.80;;;;;;6123993;23;20103;-57
2021/05/17 08:18:42;;;;;;;6.40;4.32;;;16.20;72.90;;;;;;6148682;23;20017;-57
2021/05/17 08:21:08;;;;;;;9.27;6.18;;;16.20;72.20;;;;;;6149171;23;20021;-57
2021/05/17 08:23:35;;;;;;;6.60;3.42;;;15.70;71.80;;;;;;6124837;23;20018;-57
2021/05/17 08:26:01;;;;;;;6.97;5.80;;;15.60;73.70;;;;;;6150636;23;20023;-57
2021/05/17 08:28:26;;;;;;;7.78;6.40;;;15.80;73.20;;;;;;6151002;23;20040;-57
2021/05/17 08:30:56;;;;;;;7.95;7.15;;;15.60;72.20;;;;;;6151544;23;20084;-58
2021/05/17 08:33:22;;;;;;;8.40;5.00;;;15.20;72.80;;;;;;6127216;23;20515;-56
2021/05/17 08:35:49;;;;;;;12.15;7.85;;;15.00;75.90;;;;;;6152768;23;20014;-56
2021/05/17 08:38:15;;;;;;;9.35;7.60;;;14.90;74.80;;;;;;6151171;23;20020;-56
2021/05/17 08:40:42;;;;;;;11.38;7.43;;;14.50;74.50;;;;;;6151745;23;20018;-56
2021/05/17 08:43:08;;;;;;;11.15;5.40;;;14.20;75.70;;;;;;6124396;23;20045;-57
2021/05/17 08:45:35;;;;;;;9.15;5.28;;;14.40;77.90;;;;;;6126727;23;20024;-56
2021/05/17 08:48:01;;;;;;;7.20;4.53;;;14.90;77.90;;;;;;6152998;23;20013;-58
2021/05/17 08:50:26;;;;;;;11.32;5.32;;;15.30;77.20;;;;;;6152040;23;20316;-58
2021/05/17 08:52:53;;;;;;;8.65;4.50;;;15.60;76.90;;;;;;6151499;23;20312;-57
2021/05/17 08:55:20;;;;;;;12.68;4.72;;;16.00;76.20;;;;;;6154369;23;20017;-58
2021/05/17 08:57:47;;;;;;;11.38;8.38;;;16.40;74.70;;;;;;6125921;23;20121;-57
2021/05/17 09:00:15;;;;;;;11.13;8.07;;;16.50;72.80;;;;;;6151697;23;20016;-57
2021/05/17 09:02:41;;;;;;;8.40;4.13;;;16.50;72.40;;;;;;6150553;23;20068;-57
2021/05/17 09:05:21;;;;;;;8.52;3.95;;;16.50;72.90;;;;;;6150779;23;20009;-57
2021/05/17 09:07:50;;;;;;;7.60;3.63;;;16.60;72.80;;;;;;6151449;23;20018;-57
2021/05/17 09:10:30;;;;;;;9.18;3.72;;;16.80;72.50;;;;;;6151999;23;20100;-57
2021/05/17 09:13:17;;;;;;;9.48;7.28;;;16.90;71.80;;;;;;6151569;23;20044;-61
2021/05/17 09:15:50;;;;;;;8.52;4.22;;;17.10;70.80;;;;;;6151727;23;20021;-57
2021/05/17 09:18:27;;;;;;;8.90;3.70;;;17.10;71.80;;;;;;6152262;23;20048;-58
2021/05/17 09:20:55;;;;;;;7.43;3.45;;;17.30;72.40;;;;;;6151242;23;20396;-58
2021/05/17 09:23:26;;;;;;;8.57;4.53;;;17.50;72.60;;;;;;6150734;23;20017;-58
2021/05/17 09:26:14;;;;;;;6.85;5.78;;;17.80;72.20;;;;;;6127223;23;20014;-58
2021/05/17 09:28:44;;;;;;;7.43;5.05;;;18.20;71.50;;;;;;6151370;23;20030;-58
2021/05/17 09:31:15;;;;;;;12.20;6.68;;;18.40;69.70;;;;;;6154229;23;20009;-58
2021/05/17 09:33:44;;;;;;;12.50;11.00;;;18.60;68.00;;;;;;6152775;23;20105;-58
2021/05/17 09:36:32;;;;;;;10.98;7.15;;;18.80;66.80;;;;;;6150839;23;20076;-58
2021/05/17 09:39:17;;;;;;;8.55;6.28;;;18.60;66.70;;;;;;6150304;23;20149;-58
2021/05/17 09:41:48;;;;;;;7.55;6.38;;;18.50;67.10;;;;;;6125062;23;20017;-57
2021/05/17 09:44:16;;;;;;;8.25;4.85;;;18.50;66.80;;;;;;6151131;23;20020;-57
2021/05/17 09:46:57;;;;;;;7.60;5.20;;;18.60;66.80;;;;;;6152110;23;20014;-58
2021/05/17 09:49:34;;;;;;;7.75;5.15;;;18.70;66.60;;;;;;6151284;23;20017;-57
2021/05/17 09:52:14;;;;;;;9.90;4.70;;;18.70;65.90;;;;;;6150593;23;20045;-57
2021/05/17 09:55:06;;;;;;;7.15;4.35;;;18.70;66.50;;;;;;6151831;23;20013;-57
2021/05/17 09:57:48;;;;;;;11.32;7.88;;;18.70;66.60;;;;;;6126676;23;20048;-57
2021/05/17 10:00:29;;;;;;;6.65;4.13;;;18.70;66.00;;;;;;6150588;23;20089;-57
2021/05/17 10:03:02;;;;;;;9.20;4.45;;;18.70;66.20;;;;;;6150905;23;20020;-57
2021/05/17 10:05:35;;;;;;;14.07;5.03;;;18.60;66.50;;;;;;6152017;23;20437;-58
2021/05/17 10:08:09;;;;;;;17.30;7.28;;;18.70;69.30;;;;;;6151874;23;20021;-56
2021/05/17 10:10:36;;;;;;;15.77;10.45;;;18.50;68.10;;;;;;6150536;23;20017;-57
2021/05/17 10:13:03;;;;;;;11.88;9.32;;;18.30;67.50;;;;;;6150753;23;20017;-57
2021/05/17 10:15:34;;;;;;;18.95;14.85;;;17.90;66.70;;;;;;6150875;23;20176;-57
2021/05/17 10:18:01;;;;;;;17.02;15.13;;;17.50;67.00;;;;;;6151463;23;20160;-57
2021/05/17 10:20:28;;;;;;;14.88;13.30;;;17.20;67.70;;;;;;6150603;23;20093;-57
2021/05/17 10:22:56;;;;;;;16.08;14.32;;;17.00;67.90;;;;;;6151615;23;20017;-58
2021/05/17 10:25:25;;;;;;;14.30;11.30;;;16.70;68.60;;;;;;6152313;23;20068;-66
2021/05/17 10:27:53;;;;;;;16.08;12.90;;;16.50;68.20;;;;;;6151519;23;20092;-62
2021/05/17 10:30:25;;;;;;;20.55;15.95;;;16.40;68.00;;;;;;6151399;23;20033;-64
2021/05/17 10:33:00;;;;;;;19.80;14.48;;;16.20;68.40;;;;;;6150851;23;20074;-64
2021/05/17 10:35:38;;;;;;;18.75;14.43;;;16.20;69.50;;;;;;6151760;23;20021;-65
2021/05/17 10:39:08;;;;;;;16.42;14.15;;;15.90;70.00;;;;;;6150958;23;20014;-65
2021/05/17 10:41:49;;;;;;;17.00;13.50;;;15.90;71.30;;;;;;6144124;23;20072;-64
2021/05/17 10:46:51;;;;;;;17.95;14.70;;;16.40;70.60;;;;;;6150136;23;20018;-64
2021/05/17 10:49:33;;;;;;;15.07;12.98;;;16.50;70.40;;;;;;6150719;23;20017;-64
2021/05/17 10:52:05;;;;;;;15.32;11.85;;;16.50;68.50;;;;;;6151535;23;20052;-64
2021/05/17 10:54:37;;;;;;;15.45;12.77;;;16.30;68.30;;;;;;6150557;23;20162;-65
2021/05/17 10:57:16;;;;;;;17.15;13.60;;;16.30;68.50;;;;;;6150050;23;20026;-64
2021/05/17 11:02:40;;;;;;;14.95;11.75;;;16.20;68.70;;;;;;6149914;23;20087;-64
2021/05/17 11:05:20;;;;;;;13.90;11.77;;;16.10;68.00;;;;;;6150962;23;20447;-64
2021/05/17 11:07:53;;;;;;;15.77;13.07;;;15.80;68.20;;;;;;6151329;23;20053;-64
2021/05/17 11:10:38;;;;;;;17.13;13.00;;;15.70;69.80;;;;;;6150012;23;20010;-64
2021/05/17 11:13:07;;;;;;;17.50;11.32;;;15.60;70.60;;;;;;6152784;23;20068;-64
2021/05/17 11:15:54;;;;;;;14.15;12.23;;;15.60;71.70;;;;;;6149415;23;20056;-64
2021/05/17 11:18:24;;;;;;;12.15;10.55;;;15.60;72.10;;;;;;6124446;23;20108;-65
2021/05/17 11:20:52;;;;;;;13.15;8.00;;;15.40;71.30;;;;;;6149823;23;20013;-62
2021/05/17 11:23:41;;;;;;;7.47;3.42;;;15.10;72.70;;;;;;6150718;23;20511;-63
2021/05/17 11:28:37;;;;;;;9.77;6.15;;;14.10;73.90;;;;;;6149675;23;20022;-64
2021/05/17 11:31:18;;;;;;;8.93;5.85;;;13.70;77.40;;;;;;6152191;23;20625;-64
2021/05/17 11:33:55;;;;;;;9.40;6.93;;;13.70;79.50;;;;;;6152874;23;20092;-64
2021/05/17 11:36:57;;;;;;;8.63;4.40;;;13.70;80.10;;;;;;6125510;23;20025;-64
2021/05/17 11:39:25;;;;;;;11.63;4.40;;;13.80;81.10;;;;;;6130874;23;20032;-63
2021/05/17 11:41:54;;;;;;;8.93;4.47;;;14.20;81.20;;;;;;6124002;23;20020;-63
2021/05/17 11:44:32;;;;;;;6.60;4.30;;;14.40;80.40;;;;;;6124319;23;20045;-63
2021/05/17 11:47:06;;;;;;;4.30;3.17;;;14.60;80.30;;;;;;6150403;23;20021;-64
2021/05/17 11:49:34;;;;;;;5.57;3.53;;;15.00;79.30;;;;;;6150056;23;20096;-63
2021/05/17 11:52:03;;;;;;;3.63;2.63;;;15.40;78.40;;;;;;6149947;23;20013;-64
2021/05/17 11:54:39;;;;;;;3.35;2.55;;;15.80;76.60;;;;;;6151299;23;20013;-64
2021/05/17 11:57:08;;;;;;;3.42;2.63;;;16.10;75.90;;;;;;6123291;23;20021;-64
2021/05/17 11:59:35;;;;;;;3.35;2.17;;;16.50;74.60;;;;;;6151897;23;20458;-64
2021/05/17 12:02:04;;;;;;;3.65;2.13;;;16.70;73.80;;;;;;6149889;23;20017;-64
2021/05/17 12:04:37;;;;;;;4.28;2.22;;;17.00;73.10;;;;;;6153148;23;20056;-64
2021/05/17 12:07:11;;;;;;;4.15;2.38;;;17.20;72.30;;;;;;6153513;23;20048;-64
2021/05/17 12:09:37;;;;;;;4.40;2.08;;;17.30;71.60;;;;;;6154344;23;20027;-64
2021/05/17 12:12:19;;;;;;;4.78;1.02;;;17.50;71.20;;;;;;6154424;23;20014;-64
2021/05/17 12:14:50;;;;;;;4.03;1.65;;;17.50;69.30;;;;;;6153606;23;20022;-64
2021/05/17 12:17:18;;;;;;;3.63;1.60;;;17.30;69.70;;;;;;6125802;23;20380;-64
2021/05/17 12:19:49;;;;;;;3.90;1.15;;;17.40;70.20;;;;;;6152111;23;20045;-65
2021/05/17 12:22:24;;;;;;;3.97;0.93;;;17.50;68.90;;;;;;6152209;23;20029;-65
2021/05/17 12:24:51;;;;;;;4.00;1.10;;;17.50;68.00;;;;;;6125496;23;20343;-65
2021/05/17 12:27:20;;;;;;;3.65;2.20;;;17.50;68.10;;;;;;6152934;23;20124;-65
2021/05/17 12:30:01;;;;;;;6.45;1.85;;;17.50;68.50;;;;;;6151463;23;20021;-65
2021/05/17 12:32:33;;;;;;;2.88;1.20;;;17.70;69.40;;;;;;6151164;23;20025;-65
2021/05/17 12:35:00;;;;;;;2.10;0.98;;;18.00;68.30;;;;;;6125578;23;20076;-65
2021/05/17 12:37:30;;;;;;;2.47;0.63;;;18.20;66.80;;;;;;6153430;23;20024;-65
2021/05/17 12:40:29;;;;;;;5.22;1.63;;;18.10;64.80;;;;;;6151228;23;20017;-64
2021/05/17 12:43:02;;;;;;;1.08;0.50;;;18.00;65.30;;;;;;6078064;23;20025;-64
2021/05/17 12:45:28;;;;;;;3.35;0.85;;;18.00;65.50;;;;;;6142573;23;20024;-64
2021/05/17 12:47:55;;;;;;;4.80;1.65;;;17.90;62.70;;;;;;6143138;23;20017;-64
2021/05/17 12:50:23;;;;;;;3.20;1.10;;;17.80;63.30;;;;;;6146589;23;20349;-63
2021/05/17 12:53:01;;;;;;;2.35;1.67;;;17.70;62.70;;;;;;6145843;23;20415;-64
2021/05/17 12:55:27;;;;;;;5.68;1.88;;;17.60;63.50;;;;;;6145663;23;20025;-64
2021/05/17 12:57:57;;;;;;;5.25;3.35;;;17.60;64.00;;;;;;6144419;23;20021;-64
2021/05/17 13:00:48;;;;;;;6.78;3.95;;;17.70;64.60;;;;;;6143854;23;20021;-62
2021/05/17 13:03:19;;;;;;;5.47;4.88;;;17.80;64.90;;;;;;6144840;23;20100;-63
2021/05/17 13:06:07;;;;;;;6.78;5.78;;;17.90;64.90;;;;;;6144062;23;20014;-63
2021/05/17 13:08:36;;;;;;;8.75;6.65;;;18.00;64.10;;;;;;6118687;23;20036;-63
2021/05/17 13:11:06;;;;;;;13.05;7.07;;;17.80;64.10;;;;;;6145025;23;20328;-63
2021/05/17 13:13:49;;;;;;;11.07;6.95;;;17.80;64.20;;;;;;6147041;23;20025;-64
2021/05/17 13:16:24;;;;;;;6.75;5.78;;;17.70;64.10;;;;;;6143935;23;20092;-64
2021/05/17 13:19:01;;;;;;;8.13;6.18;;;17.50;64.30;;;;;;6117272;23;20502;-64
2021/05/17 13:21:55;;;;;;;7.53;5.05;;;17.40;64.70;;;;;;6145160;23;20086;-64
2021/05/17 13:32:26;;;;;;;7.38;5.13;;;17.00;65.70;;;;;;6145996;23;20088;-65
2021/05/17 13:34:52;;;;;;;4.18;3.25;;;17.00;66.90;;;;;;6144228;23;20017;-64